createdAt,value
2023-05-09T00:00:16.927Z,16.32
2023-05-09T00:01:16.917Z,16.30
2023-05-09T00:02:16.922Z,16.32
2023-05-09T00:03:16.935Z,16.34
2023-05-09T00:04:16.949Z,16.30
2023-05-09T00:05:16.992Z,16.41
2023-05-09T00:06:16.872Z,16.34
2023-05-09T00:07:16.866Z,16.37
2023-05-09T00:08:16.856Z,16.44
2023-05-09T00:09:16.840Z,16.41
2023-05-09T00:10:16.841Z,16.48
2023-05-09T00:11:16.944Z,16.48
2023-05-09T00:12:16.819Z,16.44
2023-05-09T00:13:16.833Z,16.42
2023-05-09T00:14:16.804Z,16.36
2023-05-09T00:15:16.812Z,16.41
2023-05-09T00:16:16.818Z,16.32
2023-05-09T00:17:16.767Z,16.30
2023-05-09T00:18:16.764Z,16.36
2023-05-09T00:19:16.751Z,16.34
2023-05-09T00:20:16.740Z,16.32
2023-05-09T00:21:16.731Z,16.27
2023-05-09T00:22:16.728Z,16.23
2023-05-09T00:23:16.721Z,16.27
2023-05-09T00:24:16.705Z,16.32
2023-05-09T00:25:17.031Z,16.40
2023-05-09T00:26:16.686Z,16.40
2023-05-09T00:27:16.798Z,16.34
2023-05-09T00:28:16.671Z,16.47
2023-05-09T00:29:16.661Z,16.42
2023-05-09T00:30:16.647Z,16.41
2023-05-09T00:31:16.652Z,16.42
2023-05-09T00:32:16.778Z,16.34
2023-05-09T00:33:16.625Z,16.45
2023-05-09T00:34:16.620Z,16.32
2023-05-09T00:35:16.876Z,16.25
2023-05-09T00:36:16.606Z,16.27
2023-05-09T00:37:16.598Z,16.26
2023-05-09T00:38:16.575Z,16.16
2023-05-09T00:39:16.566Z,16.22
2023-05-09T00:40:16.561Z,16.18
2023-05-09T00:41:16.549Z,16.08
2023-05-09T00:42:16.538Z,16.13
2023-05-09T00:43:16.647Z,16.08
2023-05-09T00:44:16.522Z,16.04
2023-05-09T00:45:16.567Z,16.06
2023-05-09T00:46:16.598Z,16.14
2023-05-09T00:47:16.493Z,16.22
2023-05-09T00:48:16.501Z,16.25
2023-05-09T00:49:16.474Z,16.32
2023-05-09T00:50:16.460Z,16.40
2023-05-09T00:51:16.465Z,16.27
2023-05-09T00:52:16.446Z,16.22
2023-05-09T00:53:16.438Z,16.22
2023-05-09T00:54:16.424Z,16.27
2023-05-09T00:55:16.642Z,16.36
2023-05-09T00:56:16.421Z,16.32
2023-05-09T00:57:16.412Z,16.40
2023-05-09T00:58:16.388Z,16.40
2023-05-09T00:59:17.595Z,16.33
2023-05-09T01:00:16.372Z,16.42
2023-05-09T01:01:16.451Z,16.41
2023-05-09T01:02:16.420Z,16.42
2023-05-09T01:03:16.460Z,16.36
2023-05-09T01:04:16.335Z,16.41
2023-05-09T01:05:16.628Z,16.37
2023-05-09T01:06:16.321Z,16.36
2023-05-09T01:07:16.308Z,16.27
2023-05-09T01:08:16.302Z,16.26
2023-05-09T01:09:16.294Z,16.23
2023-05-09T01:10:16.282Z,16.25
2023-05-09T01:11:16.272Z,16.18
2023-05-09T01:12:16.263Z,16.22
2023-05-09T01:13:16.301Z,16.23
2023-05-09T01:14:16.239Z,16.16
2023-05-09T01:15:16.610Z,16.08
2023-05-09T01:16:16.246Z,16.10
2023-05-09T01:17:16.220Z,16.11
2023-05-09T01:18:16.222Z,16.22
2023-05-09T01:19:16.197Z,16.10
2023-05-09T01:20:16.188Z,16.11
2023-05-09T01:21:16.184Z,16.30
2023-05-09T01:22:16.168Z,16.33
2023-05-09T01:23:16.161Z,16.29
2023-05-09T01:24:16.149Z,16.40
2023-05-09T01:25:16.293Z,16.36
2023-05-09T01:26:16.127Z,16.29
2023-05-09T01:27:16.120Z,16.25
2023-05-09T01:28:16.114Z,16.23
2023-05-09T01:29:16.120Z,16.25
2023-05-09T01:30:16.116Z,16.18
2023-05-09T01:31:16.229Z,16.10
2023-05-09T01:32:16.098Z,16.26
2023-05-09T01:33:16.080Z,16.23
2023-05-09T01:34:16.054Z,16.23
2023-05-09T01:35:16.266Z,16.16
2023-05-09T01:36:16.036Z,16.13
2023-05-09T01:37:16.041Z,16.11
2023-05-09T01:38:16.018Z,16.10
2023-05-09T01:39:16.013Z,16.13
2023-05-09T01:40:15.999Z,16.11
2023-05-09T01:41:15.994Z,16.13
2023-05-09T01:42:15.980Z,16.18
2023-05-09T01:43:15.978Z,16.08
2023-05-09T01:44:16.052Z,16.13
2023-05-09T01:45:16.262Z,16.22
2023-05-09T01:46:15.991Z,16.22
2023-05-09T01:47:16.052Z,16.26
2023-05-09T01:48:15.930Z,16.26
2023-05-09T01:49:15.923Z,16.30
2023-05-09T01:50:15.913Z,16.32
2023-05-09T01:51:15.904Z,16.26
2023-05-09T01:52:15.889Z,16.26
2023-05-09T01:53:15.879Z,16.16
2023-05-09T01:54:15.869Z,16.17
2023-05-09T01:55:16.072Z,16.22
2023-05-09T01:56:15.852Z,16.25
2023-05-09T01:57:15.846Z,16.14
2023-05-09T01:58:15.833Z,16.18
2023-05-09T01:59:15.828Z,16.23
2023-05-09T02:00:15.815Z,16.17
2023-05-09T02:01:16.016Z,16.26
2023-05-09T02:02:15.822Z,16.08
2023-05-09T02:03:15.957Z,16.08
2023-05-09T02:04:15.787Z,16.10
2023-05-09T02:05:16.030Z,16.13
2023-05-09T02:06:15.755Z,16.10
2023-05-09T02:07:15.751Z,16.08
2023-05-09T02:08:15.744Z,16.22
2023-05-09T02:09:15.733Z,16.16
2023-05-09T02:10:15.734Z,16.36
2023-05-09T02:11:15.722Z,16.22
2023-05-09T02:12:15.727Z,16.22
2023-05-09T02:13:15.742Z,16.27
2023-05-09T02:14:15.684Z,16.18
2023-05-09T02:15:15.934Z,16.07
2023-05-09T02:16:15.690Z,16.13
2023-05-09T02:17:15.663Z,16.11
2023-05-09T02:18:15.646Z,16.14
2023-05-09T02:19:15.756Z,16.11
2023-05-09T02:20:15.626Z,16.08
2023-05-09T02:21:15.650Z,16.10
2023-05-09T02:22:15.617Z,16.18
2023-05-09T02:23:15.674Z,16.23
2023-05-09T02:24:15.600Z,16.25
2023-05-09T02:25:15.986Z,16.25
2023-05-09T02:26:15.574Z,16.26
2023-05-09T02:27:15.572Z,16.18
2023-05-09T02:28:15.557Z,16.26
2023-05-09T02:29:15.545Z,16.30
2023-05-09T02:30:15.534Z,16.16
2023-05-09T02:31:15.530Z,16.13
2023-05-09T02:32:15.769Z,16.10
2023-05-09T02:33:15.514Z,16.10
2023-05-09T02:34:15.501Z,16.18
2023-05-09T02:35:15.841Z,16.18
2023-05-09T02:36:15.483Z,16.18
2023-05-09T02:37:15.478Z,16.16
2023-05-09T02:38:15.458Z,16.16
2023-05-09T02:39:15.453Z,16.06
2023-05-09T02:40:15.440Z,16.07
2023-05-09T02:41:15.433Z,16.01
2023-05-09T02:42:15.422Z,16.08
2023-05-09T02:43:15.414Z,15.96
2023-05-09T02:44:15.402Z,15.99
2023-05-09T02:45:15.589Z,15.98
2023-05-09T02:46:15.433Z,16.01
2023-05-09T02:47:15.382Z,16.03
2023-05-09T02:48:15.368Z,15.98
2023-05-09T02:49:30.975Z,16.04
2023-05-09T02:50:15.348Z,15.96
2023-05-09T02:51:15.459Z,15.93
2023-05-09T02:52:15.332Z,15.92
2023-05-09T02:53:15.323Z,15.92
2023-05-09T02:54:15.311Z,15.92
2023-05-09T02:55:15.549Z,15.88
2023-05-09T02:56:15.292Z,15.91
2023-05-09T02:57:15.291Z,15.86
2023-05-09T02:58:15.367Z,15.89
2023-05-09T02:59:15.266Z,15.92
2023-05-09T03:00:15.256Z,15.92
2023-05-09T03:01:15.256Z,15.89
2023-05-09T03:02:15.236Z,15.93
2023-05-09T03:03:15.312Z,15.98
2023-05-09T03:04:15.220Z,15.91
2023-05-09T03:05:15.505Z,15.98
2023-05-09T03:06:15.197Z,16.04
2023-05-09T03:07:15.305Z,16.04
2023-05-09T03:08:15.177Z,15.98
2023-05-09T03:09:15.172Z,15.91
2023-05-09T03:10:15.160Z,15.92
2023-05-09T03:11:15.154Z,15.93
2023-05-09T03:12:15.141Z,15.95
2023-05-09T03:13:15.195Z,16.01
2023-05-09T03:14:15.132Z,15.98
2023-05-09T03:15:15.276Z,15.96
2023-05-09T03:16:15.130Z,15.95
2023-05-09T03:17:15.108Z,15.84
2023-05-09T03:18:15.084Z,15.78
2023-05-09T03:19:15.080Z,15.56
2023-05-09T03:20:15.066Z,15.64
2023-05-09T03:21:15.065Z,15.44
2023-05-09T03:22:15.047Z,15.56
2023-05-09T03:23:15.169Z,15.53
2023-05-09T03:24:15.029Z,15.55
2023-05-09T03:25:15.249Z,15.52
2023-05-09T03:26:15.013Z,15.48
2023-05-09T03:27:15.004Z,15.44
2023-05-09T03:28:14.992Z,15.53
2023-05-09T03:29:14.985Z,15.48
2023-05-09T03:30:15.039Z,15.53
2023-05-09T03:31:15.013Z,15.48
2023-05-09T03:32:15.348Z,15.48
2023-05-09T03:33:14.946Z,15.43
2023-05-09T03:34:15.146Z,15.51
2023-05-09T03:35:15.184Z,15.55
2023-05-09T03:36:14.915Z,15.56
2023-05-09T03:37:14.917Z,15.55
2023-05-09T03:38:14.897Z,15.56
2023-05-09T03:39:15.025Z,15.67
2023-05-09T03:40:14.880Z,15.68
2023-05-09T03:41:14.874Z,15.67
2023-05-09T03:42:14.859Z,15.68
2023-05-09T03:43:14.862Z,15.70
2023-05-09T03:44:14.850Z,15.76
2023-05-09T03:45:15.055Z,15.78
2023-05-09T03:46:14.860Z,15.73
2023-05-09T03:47:14.813Z,15.67
2023-05-09T03:48:14.796Z,15.70
2023-05-09T03:49:14.797Z,15.80
2023-05-09T03:50:14.783Z,15.77
2023-05-09T03:51:14.777Z,15.84
2023-05-09T03:52:14.763Z,15.80
2023-05-09T03:53:14.755Z,15.80
2023-05-09T03:54:14.748Z,15.85
2023-05-09T03:55:15.030Z,15.84
2023-05-09T03:56:14.733Z,15.78
2023-05-09T03:57:14.718Z,15.76
2023-05-09T03:58:14.715Z,15.77
2023-05-09T03:59:14.706Z,15.88
2023-05-09T04:00:14.689Z,15.81
2023-05-09T04:01:14.678Z,15.78
2023-05-09T04:02:14.710Z,15.78
2023-05-09T04:03:14.758Z,15.76
2023-05-09T04:04:14.668Z,15.80
2023-05-09T04:05:14.817Z,15.76
2023-05-09T04:06:14.631Z,15.71
2023-05-09T04:07:14.626Z,15.74
2023-05-09T04:08:14.618Z,15.77
2023-05-09T04:09:14.605Z,15.85
2023-05-09T04:10:14.595Z,15.84
2023-05-09T04:11:14.713Z,15.88
2023-05-09T04:12:14.574Z,15.84
2023-05-09T04:13:14.605Z,15.80
2023-05-09T04:14:14.554Z,15.74
2023-05-09T04:15:14.745Z,15.76
2023-05-09T04:16:14.649Z,15.66
2023-05-09T04:17:14.531Z,15.74
2023-05-09T04:18:14.519Z,15.66
2023-05-09T04:19:14.516Z,15.66
2023-05-09T04:20:14.502Z,15.67
2023-05-09T04:21:14.502Z,15.68
2023-05-09T04:22:14.485Z,15.71
2023-05-09T04:23:14.472Z,15.77
2023-05-09T04:24:14.469Z,15.78
2023-05-09T04:25:14.778Z,15.80
2023-05-09T04:26:14.442Z,15.76
2023-05-09T04:27:14.551Z,15.96
2023-05-09T04:28:14.424Z,16.07
2023-05-09T04:29:14.415Z,16.08
2023-05-09T04:30:14.402Z,16.16
2023-05-09T04:31:14.465Z,15.96
2023-05-09T04:32:14.396Z,16.04
2023-05-09T04:33:14.386Z,15.99
2023-05-09T04:34:14.368Z,15.89
2023-05-09T04:35:14.938Z,16.01
2023-05-09T04:36:14.345Z,15.95
2023-05-09T04:37:14.339Z,15.88
2023-05-09T04:38:14.335Z,15.89
2023-05-09T04:39:14.329Z,15.89
2023-05-09T04:40:14.303Z,15.92
2023-05-09T04:41:14.321Z,15.91
2023-05-09T04:42:14.298Z,15.92
2023-05-09T04:43:14.397Z,15.98
2023-05-09T04:44:14.275Z,15.93
2023-05-09T04:45:14.478Z,15.89
2023-05-09T04:46:14.306Z,15.86
2023-05-09T04:47:14.244Z,15.88
2023-05-09T04:48:14.236Z,15.84
2023-05-09T04:49:14.224Z,15.84
2023-05-09T04:50:14.223Z,15.89
2023-05-09T04:51:14.204Z,15.91
2023-05-09T04:52:14.200Z,15.86
2023-05-09T04:53:14.182Z,15.89
2023-05-09T04:54:14.221Z,15.86
2023-05-09T04:55:14.500Z,15.92
2023-05-09T04:56:14.161Z,16.01
2023-05-09T04:57:18.397Z,15.92
2023-05-09T04:58:14.152Z,15.91
2023-05-09T04:59:14.258Z,15.91
2023-05-09T05:00:14.128Z,15.96
2023-05-09T05:01:14.133Z,15.96
2023-05-09T05:02:14.110Z,15.86
2023-05-09T05:03:14.090Z,15.84
2023-05-09T05:04:14.147Z,15.80
2023-05-09T05:05:14.076Z,15.85
2023-05-09T05:06:14.071Z,15.84
2023-05-09T05:07:14.062Z,15.89
2023-05-09T05:08:14.092Z,15.91
2023-05-09T05:09:14.033Z,15.92
2023-05-09T05:10:14.031Z,15.93
2023-05-09T05:11:14.020Z,15.95
2023-05-09T05:12:14.008Z,15.91
2023-05-09T05:13:14.025Z,15.91
2023-05-09T05:14:13.987Z,15.86
2023-05-09T05:15:14.260Z,15.86
2023-05-09T05:16:14.033Z,15.95
2023-05-09T05:17:13.956Z,15.89
2023-05-09T05:18:13.961Z,15.95
2023-05-09T05:19:13.937Z,15.96
2023-05-09T05:20:13.931Z,15.92
2023-05-09T05:21:13.917Z,15.96
2023-05-09T05:22:13.916Z,15.95
2023-05-09T05:23:13.898Z,16.03
2023-05-09T05:24:13.908Z,15.99
2023-05-09T05:25:14.045Z,16.08
2023-05-09T05:26:13.870Z,16.29
2023-05-09T05:27:13.863Z,16.27
2023-05-09T05:28:13.859Z,16.17
2023-05-09T05:29:13.843Z,16.30
2023-05-09T05:30:13.841Z,16.23
2023-05-09T05:31:14.006Z,16.26
2023-05-09T05:32:13.819Z,16.23
2023-05-09T05:33:13.804Z,16.23
2023-05-09T05:34:13.800Z,16.16
2023-05-09T05:35:14.100Z,16.30
2023-05-09T05:36:13.781Z,16.18
2023-05-09T05:37:13.767Z,16.16
2023-05-09T05:38:13.760Z,16.18
2023-05-09T05:39:13.746Z,16.18
2023-05-09T05:40:13.740Z,16.23
2023-05-09T05:41:13.726Z,16.18
2023-05-09T05:42:13.726Z,16.25
2023-05-09T05:43:13.709Z,16.26
2023-05-09T05:44:13.701Z,16.16
2023-05-09T05:45:13.898Z,16.22
2023-05-09T05:46:13.733Z,16.16
2023-05-09T05:47:13.787Z,16.26
2023-05-09T05:48:13.662Z,16.25
2023-05-09T05:49:13.651Z,16.30
2023-05-09T05:50:13.647Z,16.37
2023-05-09T05:51:13.633Z,16.44
2023-05-09T05:52:13.630Z,16.44
2023-05-09T05:53:13.612Z,16.48
2023-05-09T05:54:13.606Z,16.50
2023-05-09T05:55:13.939Z,16.54
2023-05-09T05:56:13.589Z,16.66
2023-05-09T05:57:13.577Z,16.63
2023-05-09T05:58:13.575Z,16.66
2023-05-09T05:59:13.746Z,16.69
2023-05-09T06:00:13.550Z,16.72
2023-05-09T06:01:13.546Z,16.69
2023-05-09T06:02:13.553Z,16.72
2023-05-09T06:03:13.723Z,16.78
2023-05-09T06:04:13.638Z,16.82
2023-05-09T06:05:13.753Z,16.80
2023-05-09T06:06:13.502Z,16.81
2023-05-09T06:07:13.483Z,16.73
2023-05-09T06:08:13.480Z,16.82
2023-05-09T06:09:13.470Z,16.77
2023-05-09T06:10:13.461Z,16.80
2023-05-09T06:11:13.649Z,16.85
2023-05-09T06:12:13.446Z,16.91
2023-05-09T06:13:13.464Z,16.95
2023-05-09T06:14:13.427Z,16.95
2023-05-09T06:15:13.639Z,16.98
2023-05-09T06:16:19.496Z,16.88
2023-05-09T06:17:13.490Z,16.91
2023-05-09T06:18:13.401Z,16.84
2023-05-09T06:19:13.491Z,16.88
2023-05-09T06:20:13.366Z,16.88
2023-05-09T06:21:13.361Z,16.88
2023-05-09T06:22:13.366Z,16.87
2023-05-09T06:23:13.339Z,16.98
2023-05-09T06:24:23.337Z,16.82
2023-05-09T06:25:13.507Z,16.82
2023-05-09T06:26:13.314Z,16.91
2023-05-09T06:27:13.303Z,16.96
2023-05-09T06:28:13.298Z,16.91
2023-05-09T06:29:13.291Z,16.98
2023-05-09T06:30:24.770Z,17.05
2023-05-09T06:31:13.284Z,17.07
2023-05-09T06:32:13.279Z,17.18
2023-05-09T06:33:13.251Z,17.24
2023-05-09T06:34:13.248Z,17.22
2023-05-09T06:35:13.582Z,17.27
2023-05-09T06:36:13.240Z,17.30
2023-05-09T06:37:13.221Z,17.27
2023-05-09T06:38:13.218Z,17.22
2023-05-09T06:39:13.201Z,17.24
2023-05-09T06:40:13.195Z,17.28
2023-05-09T06:41:13.185Z,17.40
2023-05-09T06:42:13.178Z,17.35
2023-05-09T06:43:13.185Z,17.45
2023-05-09T06:44:13.159Z,17.42
2023-05-09T06:45:13.457Z,17.53
2023-05-09T06:46:13.222Z,17.33
2023-05-09T06:47:13.134Z,17.28
2023-05-09T06:48:13.126Z,17.45
2023-05-09T06:49:13.118Z,17.53
2023-05-09T06:50:13.113Z,17.55
2023-05-09T06:51:13.249Z,17.42
2023-05-09T06:52:13.092Z,17.35
2023-05-09T06:53:13.088Z,17.38
2023-05-09T06:54:13.077Z,17.33
2023-05-09T06:55:13.263Z,17.32
2023-05-09T06:56:13.071Z,17.27
2023-05-09T06:57:13.047Z,17.22
2023-05-09T06:58:13.042Z,17.18
2023-05-09T06:59:13.025Z,17.17
2023-05-09T07:00:13.037Z,17.28
2023-05-09T07:01:13.030Z,17.28
2023-05-09T07:02:13.037Z,17.35
2023-05-09T07:03:13.002Z,17.40
2023-05-09T07:04:13.003Z,17.57
2023-05-09T07:05:13.258Z,17.55
2023-05-09T07:06:12.978Z,17.65
2023-05-09T07:07:13.102Z,17.68
2023-05-09T07:08:12.953Z,17.68
2023-05-09T07:09:12.944Z,17.80
2023-05-09T07:10:13.303Z,17.79
2023-05-09T07:11:12.943Z,17.92
2023-05-09T07:12:12.921Z,17.94
2023-05-09T07:13:12.935Z,18.01
2023-05-09T07:14:12.905Z,18.07
2023-05-09T07:15:13.001Z,18.13
2023-05-09T07:16:12.943Z,18.23
2023-05-09T07:17:23.063Z,18.26
2023-05-09T07:18:12.899Z,18.29
2023-05-09T07:19:12.864Z,18.28
2023-05-09T07:20:12.857Z,18.46
2023-05-09T07:21:12.842Z,18.47
2023-05-09T07:22:12.859Z,18.32
2023-05-09T07:23:12.948Z,18.39
2023-05-09T07:24:12.823Z,18.38
2023-05-09T07:25:12.971Z,18.39
2023-05-09T07:26:12.811Z,18.44
2023-05-09T07:27:12.795Z,18.53
2023-05-09T07:28:12.790Z,18.50
2023-05-09T07:29:12.782Z,18.53
2023-05-09T07:30:12.906Z,18.50
2023-05-09T07:31:12.863Z,18.53
2023-05-09T07:32:12.826Z,18.44
2023-05-09T07:33:12.759Z,18.42
2023-05-09T07:34:12.744Z,18.39
2023-05-09T07:35:12.979Z,18.46
2023-05-09T07:36:12.728Z,18.31
2023-05-09T07:37:13.757Z,18.11
2023-05-09T07:38:12.712Z,18.04
2023-05-09T07:39:12.821Z,17.99
2023-05-09T07:40:12.820Z,17.83
2023-05-09T07:41:12.686Z,18.02
2023-05-09T07:42:12.691Z,18.05
2023-05-09T07:43:12.673Z,18.25
2023-05-09T07:44:12.668Z,18.41
2023-05-09T07:45:12.831Z,18.38
2023-05-09T07:46:12.709Z,18.49
2023-05-09T07:47:12.629Z,18.50
2023-05-09T07:48:12.642Z,18.53
2023-05-09T07:49:12.617Z,18.49
2023-05-09T07:50:12.612Z,18.56
2023-05-09T07:51:12.602Z,18.79
2023-05-09T07:52:12.595Z,18.90
2023-05-09T07:53:12.587Z,19.20
2023-05-09T07:54:12.585Z,19.12
2023-05-09T07:55:12.747Z,19.32
2023-05-09T07:56:12.566Z,19.40
2023-05-09T07:57:12.557Z,19.55
2023-05-09T07:58:12.550Z,19.58
2023-05-09T07:59:12.544Z,19.57
2023-05-09T08:00:12.531Z,19.53
2023-05-09T08:01:12.524Z,19.23
2023-05-09T08:02:12.572Z,19.10
2023-05-09T08:03:12.582Z,19.07
2023-05-09T08:04:12.666Z,19.09
2023-05-09T08:05:12.687Z,19.07
2023-05-09T08:06:12.497Z,19.07
2023-05-09T08:07:12.501Z,19.20
2023-05-09T08:08:12.483Z,19.17
2023-05-09T08:09:12.468Z,19.28
2023-05-09T08:10:12.464Z,19.24
2023-05-09T08:11:12.580Z,19.28
2023-05-09T08:12:12.448Z,19.38
2023-05-09T08:13:12.503Z,19.49
2023-05-09T08:14:13.202Z,19.58
2023-05-09T08:15:12.707Z,19.67
2023-05-09T08:16:12.470Z,19.86
2023-05-09T08:17:12.413Z,20.01
2023-05-09T08:18:12.421Z,20.12
2023-05-09T08:19:12.407Z,20.33
2023-05-09T08:20:12.398Z,20.37
2023-05-09T08:21:12.392Z,20.44
2023-05-09T08:22:12.381Z,20.46
2023-05-09T08:23:12.380Z,20.71
2023-05-09T08:24:12.367Z,20.82
2023-05-09T08:25:12.447Z,20.81
2023-05-09T08:26:12.352Z,20.83
2023-05-09T08:27:12.549Z,20.90
2023-05-09T08:28:12.346Z,20.96
2023-05-09T08:29:12.335Z,20.98
2023-05-09T08:30:12.336Z,21.08
2023-05-09T08:31:12.331Z,21.15
2023-05-09T08:32:12.325Z,21.31
2023-05-09T08:33:12.403Z,21.27
2023-05-09T08:34:12.318Z,21.31
2023-05-09T08:35:12.541Z,21.40
2023-05-09T08:36:12.294Z,21.36
2023-05-09T08:37:14.989Z,21.45
2023-05-09T08:38:12.281Z,21.53
2023-05-09T08:39:12.272Z,21.51
2023-05-09T08:40:12.296Z,21.46
2023-05-09T08:41:12.263Z,21.19
2023-05-09T08:42:12.259Z,21.18
2023-05-09T08:43:12.385Z,21.45
2023-05-09T08:44:12.259Z,21.52
2023-05-09T08:45:12.244Z,21.81
2023-05-09T08:46:12.272Z,21.98
2023-05-09T08:47:12.228Z,22.01
2023-05-09T08:48:12.233Z,21.96
2023-05-09T08:49:12.215Z,22.05
2023-05-09T08:50:12.414Z,22.06
2023-05-09T08:51:12.207Z,22.21
2023-05-09T08:52:12.206Z,22.27
2023-05-09T08:53:12.204Z,22.23
2023-05-09T08:54:12.197Z,22.20
2023-05-09T08:55:12.194Z,22.23
2023-05-09T08:56:12.189Z,22.17
2023-05-09T08:57:12.175Z,22.05
2023-05-09T08:58:12.177Z,22.02
2023-05-09T08:59:12.283Z,22.01
2023-05-09T09:00:12.289Z,22.06
2023-05-09T09:01:12.193Z,22.12
2023-05-09T09:02:12.173Z,22.17
2023-05-09T09:03:12.175Z,22.31
2023-05-09T09:04:12.152Z,22.51
2023-05-09T09:05:23.776Z,22.46
2023-05-09T09:06:12.142Z,22.45
2023-05-09T09:07:12.129Z,22.59
2023-05-09T09:08:12.121Z,22.57
2023-05-09T09:09:12.140Z,22.44
2023-05-09T09:10:12.127Z,22.48
2023-05-09T09:11:12.113Z,22.38
2023-05-09T09:12:12.102Z,21.93
2023-05-09T09:13:12.141Z,21.74
2023-05-09T09:14:12.094Z,21.31
2023-05-09T09:15:12.297Z,21.00
2023-05-09T09:16:12.095Z,20.91
2023-05-09T09:17:12.094Z,21.16
2023-05-09T09:18:12.121Z,21.19
2023-05-09T09:19:12.071Z,21.30
2023-05-09T09:20:12.174Z,21.48
2023-05-09T09:21:12.068Z,21.68
2023-05-09T09:22:12.054Z,21.96
2023-05-09T09:23:12.051Z,22.05
2023-05-09T09:24:12.047Z,22.11
2023-05-09T09:25:12.041Z,22.01
2023-05-09T09:26:12.038Z,21.94
2023-05-09T09:27:12.031Z,21.79
2023-05-09T09:28:12.029Z,21.74
2023-05-09T09:29:12.020Z,21.94
2023-05-09T09:30:12.051Z,21.90
2023-05-09T09:31:12.139Z,22.01
2023-05-09T09:32:12.134Z,22.01
2023-05-09T09:33:12.072Z,21.94
2023-05-09T09:34:11.996Z,22.19
2023-05-09T09:35:12.007Z,22.33
2023-05-09T09:36:11.981Z,22.45
2023-05-09T09:37:11.983Z,22.59
2023-05-09T09:38:11.985Z,22.76
2023-05-09T09:39:11.995Z,22.91
2023-05-09T09:40:12.131Z,23.11
2023-05-09T09:41:11.964Z,23.23
2023-05-09T09:42:11.956Z,23.32
2023-05-09T09:43:11.960Z,23.37
2023-05-09T09:44:11.951Z,23.37
2023-05-09T09:45:11.960Z,23.38
2023-05-09T09:46:12.026Z,23.52
2023-05-09T09:47:12.058Z,23.44
2023-05-09T09:48:11.956Z,23.44
2023-05-09T09:49:11.938Z,23.45
2023-05-09T09:50:12.052Z,23.52
2023-05-09T09:51:11.960Z,23.64
2023-05-09T09:52:11.924Z,23.67
2023-05-09T09:53:11.946Z,23.37
2023-05-09T09:54:11.927Z,22.81
2023-05-09T09:55:11.917Z,22.69
2023-05-09T09:56:11.902Z,22.74
2023-05-09T09:57:11.900Z,22.82
2023-05-09T09:58:11.893Z,22.91
2023-05-09T09:59:11.893Z,22.85
2023-05-09T10:00:11.961Z,22.85
2023-05-09T10:01:11.956Z,22.94
2023-05-09T10:02:11.887Z,22.99
2023-05-09T10:03:12.105Z,22.91
2023-05-09T10:04:11.894Z,22.96
2023-05-09T10:05:11.871Z,23.11
2023-05-09T10:06:11.859Z,23.21
2023-05-09T10:07:14.888Z,23.29
2023-05-09T10:08:11.852Z,23.38
2023-05-09T10:09:11.858Z,23.34
2023-05-09T10:10:11.955Z,23.39
2023-05-09T10:11:11.848Z,23.37
2023-05-09T10:12:11.844Z,23.50
2023-05-09T10:13:11.922Z,23.77
2023-05-09T10:14:11.828Z,23.59
2023-05-09T10:15:11.832Z,23.34
2023-05-09T10:16:11.940Z,22.91
2023-05-09T10:17:11.906Z,22.56
2023-05-09T10:18:11.947Z,22.46
2023-05-09T10:19:11.977Z,22.31
2023-05-09T10:20:11.901Z,22.33
2023-05-09T10:21:11.803Z,22.35
2023-05-09T10:22:11.799Z,22.26
2023-05-09T10:23:11.802Z,22.41
2023-05-09T10:24:11.790Z,22.57
2023-05-09T10:25:11.789Z,22.79
2023-05-09T10:26:11.780Z,23.07
2023-05-09T10:27:11.780Z,23.26
2023-05-09T10:28:11.784Z,23.44
2023-05-09T10:29:11.784Z,23.68
2023-05-09T10:30:11.765Z,23.87
2023-05-09T10:31:11.806Z,23.44
2023-05-09T10:32:11.757Z,22.86
2023-05-09T10:33:11.773Z,22.67
2023-05-09T10:34:11.749Z,22.61
2023-05-09T10:35:11.937Z,22.52
2023-05-09T10:36:11.741Z,22.69
2023-05-09T10:37:11.736Z,22.74
2023-05-09T10:38:11.737Z,22.84
2023-05-09T10:39:11.732Z,23.12
2023-05-09T10:40:11.732Z,23.21
2023-05-09T10:41:11.725Z,23.42
2023-05-09T10:42:11.714Z,23.77
2023-05-09T10:43:11.715Z,23.90
2023-05-09T10:44:11.712Z,24.09
2023-05-09T10:45:11.706Z,24.08
2023-05-09T10:46:11.725Z,24.21
2023-05-09T10:47:11.702Z,24.14
2023-05-09T10:48:11.701Z,24.31
2023-05-09T10:49:11.698Z,24.31
2023-05-09T10:50:11.689Z,24.45
2023-05-09T10:51:11.810Z,24.45
2023-05-09T10:52:11.688Z,24.44
2023-05-09T10:53:11.677Z,24.68
2023-05-09T10:54:11.674Z,24.70
2023-05-09T10:55:11.694Z,24.75
2023-05-09T10:56:11.666Z,24.84
2023-05-09T10:57:11.670Z,24.90
2023-05-09T10:58:11.673Z,25.02
2023-05-09T10:59:11.659Z,25.04
2023-05-09T11:00:11.655Z,25.09
2023-05-09T11:01:11.665Z,25.11
2023-05-09T11:02:11.647Z,25.08
2023-05-09T11:03:11.701Z,25.20
2023-05-09T11:04:11.700Z,25.27
2023-05-09T11:05:11.751Z,25.23
2023-05-09T11:06:11.639Z,25.17
2023-05-09T11:07:11.964Z,25.20
2023-05-09T11:08:11.633Z,25.27
2023-05-09T11:09:11.636Z,25.23
2023-05-09T11:10:11.658Z,25.38
2023-05-09T11:11:11.632Z,25.39
2023-05-09T11:12:11.629Z,25.36
2023-05-09T11:13:11.657Z,25.42
2023-05-09T11:14:11.624Z,25.53
2023-05-09T11:15:11.628Z,25.63
2023-05-09T11:16:11.743Z,25.53
2023-05-09T11:17:11.616Z,25.57
2023-05-09T11:18:11.671Z,25.57
2023-05-09T11:19:11.610Z,25.57
2023-05-09T11:20:11.611Z,25.56
2023-05-09T11:21:11.604Z,25.36
2023-05-09T11:22:11.606Z,25.22
2023-05-09T11:23:11.754Z,25.11
2023-05-09T11:24:11.596Z,25.19
2023-05-09T11:25:11.613Z,25.08
2023-05-09T11:26:11.591Z,24.84
2023-05-09T11:27:11.595Z,24.44
2023-05-09T11:28:11.590Z,24.31
2023-05-09T11:29:11.599Z,24.30
2023-05-09T11:30:11.585Z,24.15
2023-05-09T11:31:11.595Z,23.86
2023-05-09T11:32:11.719Z,24.02
2023-05-09T11:33:11.647Z,23.78
2023-05-09T11:34:11.582Z,23.79
2023-05-09T11:35:11.645Z,23.82
2023-05-09T11:36:11.590Z,23.81
2023-05-09T11:37:11.568Z,23.87
2023-05-09T11:38:11.564Z,24.23
2023-05-09T11:39:11.680Z,24.15
2023-05-09T11:40:11.556Z,24.15
2023-05-09T11:41:11.564Z,24.11
2023-05-09T11:42:11.550Z,24.15
2023-05-09T11:43:11.550Z,23.97
2023-05-09T11:44:11.547Z,24.14
2023-05-09T11:45:11.646Z,24.31
2023-05-09T11:46:11.596Z,24.42
2023-05-09T11:47:11.540Z,24.59
2023-05-09T11:48:11.617Z,24.71
2023-05-09T11:49:12.365Z,24.74
2023-05-09T11:50:11.536Z,24.90
2023-05-09T11:51:11.535Z,25.04
2023-05-09T11:52:11.528Z,25.09
2023-05-09T11:53:11.565Z,24.83
2023-05-09T11:54:11.517Z,24.75
2023-05-09T11:55:12.822Z,24.33
2023-05-09T11:56:11.522Z,24.34
2023-05-09T11:57:11.520Z,24.44
2023-05-09T11:58:11.505Z,24.55
2023-05-09T11:59:11.505Z,24.66
2023-05-09T12:00:11.501Z,24.89
2023-05-09T12:01:12.381Z,24.93
2023-05-09T12:02:11.554Z,24.97
2023-05-09T12:03:11.562Z,24.75
2023-05-09T12:04:11.523Z,24.49
2023-05-09T12:05:11.486Z,24.29
2023-05-09T12:06:11.481Z,24.14
2023-05-09T12:07:11.479Z,24.06
2023-05-09T12:08:11.476Z,24.00
2023-05-09T12:09:11.482Z,24.12
2023-05-09T12:10:11.476Z,24.16
2023-05-09T12:11:11.588Z,24.14
2023-05-09T12:12:11.483Z,24.24
2023-05-09T12:13:11.487Z,24.27
2023-05-09T12:14:11.670Z,24.31
2023-05-09T12:15:11.459Z,24.42
2023-05-09T12:16:11.493Z,24.56
2023-05-09T12:17:11.479Z,24.86
2023-05-09T12:18:11.480Z,25.02
2023-05-09T12:19:11.448Z,24.94
2023-05-09T12:20:11.646Z,24.87
2023-05-09T12:21:11.444Z,24.93
2023-05-09T12:22:11.441Z,24.98
2023-05-09T12:23:11.436Z,25.07
2023-05-09T12:24:11.427Z,25.16
2023-05-09T12:25:11.439Z,25.24
2023-05-09T12:26:11.427Z,25.27
2023-05-09T12:27:11.633Z,25.38
2023-05-09T12:28:11.426Z,25.54
2023-05-09T12:29:11.427Z,25.56
2023-05-09T12:30:11.418Z,25.69
2023-05-09T12:31:11.444Z,25.67
2023-05-09T12:32:11.410Z,25.72
2023-05-09T12:33:11.412Z,25.90
2023-05-09T12:34:11.405Z,25.89
2023-05-09T12:35:11.459Z,26.00
2023-05-09T12:36:11.519Z,25.97
2023-05-09T12:37:11.399Z,25.85
2023-05-09T12:38:11.399Z,25.69
2023-05-09T12:39:11.400Z,25.51
2023-05-09T12:40:11.437Z,25.35
2023-05-09T12:41:22.288Z,25.45
2023-05-09T12:42:11.390Z,25.51
2023-05-09T12:43:11.511Z,25.66
2023-05-09T12:44:11.390Z,25.81
2023-05-09T12:45:11.455Z,25.89
2023-05-09T12:46:11.379Z,25.91
2023-05-09T12:47:11.510Z,26.00
2023-05-09T12:48:11.473Z,26.13
2023-05-09T12:49:11.394Z,26.32
2023-05-09T12:50:11.375Z,26.42
2023-05-09T12:51:11.376Z,26.38
2023-05-09T12:53:11.366Z,26.51